Time;durP1;ratioP1;P1;durP2;ratioP2;P2;SDS_P1;SDS_P2;PMS_P1;PMS_P2;Temp;Humidity;BMP_temperature;BMP_pressure;BME280_temperature;BME280_humidity;BME280_pressure;Samples;Min_cycle;Max_cycle;Signal;HPM_P1;HPM_P2
2023/09/17 00:01:25;;;;;;;0.40;0.30;;;21.60;99.90;;;;;;4971316;28;20781;-85
2023/09/17 00:03:51;;;;;;;0.40;0.20;;;21.60;99.90;;;;;;4992501;28;20198;-82
2023/09/17 00:06:17;;;;;;;0.50;0.47;;;21.40;99.90;;;;;;4971630;28;20541;-84
2023/09/17 00:08:42;;;;;;;0.40;0.20;;;21.30;99.90;;;;;;4993521;28;20455;-84
2023/09/17 00:11:08;;;;;;;0.40;0.20;;;21.20;99.90;;;;;;4972526;28;20245;-79
2023/09/17 00:13:35;;;;;;;0.40;0.20;;;21.30;99.90;;;;;;4979502;28;20176;-85
2023/09/17 00:16:01;;;;;;;0.40;0.20;;;21.30;99.90;;;;;;4979371;28;20211;-82
2023/09/17 00:18:27;;;;;;;0.40;0.30;;;21.40;99.90;;;;;;4976751;28;20431;-84
2023/09/17 00:20:53;;;;;;;0.50;0.40;;;21.50;99.90;;;;;;4993530;28;20466;-81
2023/09/17 00:23:18;;;;;;;0.40;0.30;;;21.40;99.90;;;;;;4975171;28;20266;-81
2023/09/17 00:25:44;;;;;;;0.40;0.30;;;21.60;99.90;;;;;;4981480;28;20234;-77
2023/09/17 00:28:09;;;;;;;0.40;0.30;;;21.50;99.90;;;;;;4982327;28;20219;-84
2023/09/17 00:30:36;;;;;;;0.40;0.20;;;21.50;99.90;;;;;;4974100;28;20180;-79
2023/09/17 00:33:02;;;;;;;0.50;0.40;;;21.50;99.90;;;;;;4981309;28;20219;-80
2023/09/17 00:35:28;;;;;;;0.40;0.27;;;21.50;99.90;;;;;;4997457;28;20447;-79
2023/09/17 00:37:53;;;;;;;0.40;0.30;;;21.40;99.90;;;;;;4980574;28;20599;-85
2023/09/17 00:40:23;;;;;;;0.40;0.30;;;21.40;99.90;;;;;;4978005;28;20256;-79
2023/09/17 00:42:49;;;;;;;0.40;0.30;;;21.20;99.90;;;;;;4978026;28;20218;-81
2023/09/17 00:45:14;;;;;;;0.40;0.20;;;21.20;99.90;;;;;;4985414;28;20531;-85
2023/09/17 00:47:40;;;;;;;0.40;0.30;;;21.20;99.90;;;;;;4974890;28;20218;-78
2023/09/17 00:50:09;;;;;;;0.40;0.30;;;21.30;99.90;;;;;;4992020;28;20443;-80
2023/09/17 00:52:35;;;;;;;0.40;0.30;;;21.20;99.90;;;;;;4974408;28;20326;-82
2023/09/17 00:55:01;;;;;;;0.40;0.30;;;21.00;99.90;;;;;;4975761;28;20567;-84
2023/09/17 00:57:27;;;;;;;0.40;0.27;;;20.90;99.90;;;;;;4989928;28;20226;-85
2023/09/17 00:59:52;;;;;;;0.40;0.20;;;20.90;99.90;;;;;;4969225;28;20475;-85
2023/09/17 01:02:21;;;;;;;0.40;0.30;;;20.90;99.90;;;;;;4976934;28;20471;-80
2023/09/17 01:04:49;;;;;;;0.50;0.50;;;20.90;99.90;;;;;;4971404;28;20187;-79
2023/09/17 01:07:19;;;;;;;0.40;0.20;;;21.00;99.90;;;;;;4980193;28;21131;-84
2023/09/17 01:09:45;;;;;;;0.40;0.30;;;21.00;99.90;;;;;;4975382;28;20443;-79
2023/09/17 01:12:11;;;;;;;0.40;0.20;;;21.00;99.90;;;;;;4978636;28;20463;-80
2023/09/17 01:14:37;;;;;;;0.40;0.20;;;21.00;99.90;;;;;;4999592;28;20451;-80
2023/09/17 01:17:08;;;;;;;0.70;0.50;;;20.90;99.90;;;;;;4984430;28;20473;-82
2023/09/17 01:19:34;;;;;;;0.40;0.30;;;20.80;99.90;;;;;;4996410;28;20431;-82
2023/09/17 01:22:11;;;;;;;0.40;0.30;;;20.70;99.90;;;;;;4973805;28;20513;-82
2023/09/17 01:24:49;;;;;;;0.40;0.30;;;20.40;99.90;;;;;;4991163;28;20471;-86
2023/09/17 01:27:18;;;;;;;0.40;0.20;;;19.90;99.90;;;;;;4995184;28;20525;-82
2023/09/17 01:29:46;;;;;;;0.40;0.20;;;19.60;99.90;;;;;;4971024;28;20446;-84
2023/09/17 01:32:12;;;;;;;0.60;0.60;;;19.40;99.90;;;;;;4971211;28;20486;-78
2023/09/17 01:34:40;;;;;;;0.40;0.30;;;19.40;99.90;;;;;;4984743;28;20451;-82
2023/09/17 01:37:19;;;;;;;0.40;0.30;;;19.30;99.90;;;;;;4973170;28;20208;-77
2023/09/17 01:39:56;;;;;;;0.40;0.30;;;19.30;99.90;;;;;;4992663;28;20502;-83
2023/09/17 01:42:23;;;;;;;0.40;0.20;;;19.10;99.90;;;;;;4992159;28;20466;-85
2023/09/17 01:44:49;;;;;;;0.40;0.20;;;19.20;99.90;;;;;;4990274;28;20446;-80
2023/09/17 01:47:16;;;;;;;0.40;0.30;;;19.20;99.90;;;;;;4977637;28;20435;-82
2023/09/17 01:49:44;;;;;;;0.40;0.20;;;19.00;99.90;;;;;;4982973;28;20431;-77
2023/09/17 01:52:11;;;;;;;0.40;0.20;;;18.90;99.90;;;;;;4976294;28;21083;-82
2023/09/17 01:54:37;;;;;;;0.40;0.27;;;18.80;99.90;;;;;;4967255;28;20519;-82
2023/09/17 01:57:03;;;;;;;0.50;0.40;;;18.80;99.90;;;;;;4980238;28;20489;-83
2023/09/17 01:59:29;;;;;;;0.40;0.30;;;19.00;99.90;;;;;;4976427;28;20446;-80
2023/09/17 02:01:54;;;;;;;0.40;0.27;;;18.90;99.90;;;;;;4973644;28;20462;-84
2023/09/17 02:04:20;;;;;;;0.40;0.20;;;18.90;99.90;;;;;;4969747;28;20251;-81
2023/09/17 02:06:46;;;;;;;0.83;0.83;;;18.90;99.90;;;;;;4973870;28;20195;-82
2023/09/17 02:09:12;;;;;;;0.40;0.30;;;18.90;99.90;;;;;;4976309;28;20192;-81
2023/09/17 02:11:38;;;;;;;0.40;0.20;;;18.90;99.90;;;;;;4972991;28;20470;-85
2023/09/17 02:14:04;;;;;;;0.40;0.20;;;19.00;99.90;;;;;;4972825;28;20449;-84
2023/09/17 02:16:31;;;;;;;0.40;0.20;;;19.10;99.90;;;;;;4987931;28;20471;-83
2023/09/17 02:18:57;;;;;;;0.40;0.30;;;19.20;99.90;;;;;;4987528;28;20477;-80
2023/09/17 02:21:23;;;;;;;0.40;0.30;;;19.20;99.90;;;;;;4986740;28;20435;-84
2023/09/17 02:23:48;;;;;;;0.40;0.20;;;19.30;99.90;;;;;;4974746;28;20192;-82
2023/09/17 02:26:15;;;;;;;0.40;0.20;;;19.10;99.90;;;;;;4972251;28;20180;-84
2023/09/17 02:28:41;;;;;;;0.40;0.23;;;19.10;99.90;;;;;;4967796;28;20350;-82
2023/09/17 02:31:06;;;;;;;0.40;0.30;;;19.20;99.90;;;;;;4971049;28;20513;-84
2023/09/17 02:33:32;;;;;;;0.40;0.20;;;19.30;99.90;;;;;;4963202;28;20214;-82
2023/09/17 02:35:58;;;;;;;0.40;0.20;;;19.30;99.90;;;;;;4973640;28;20200;-80
2023/09/17 02:38:26;;;;;;;0.40;0.20;;;19.30;99.90;;;;;;4986877;28;20447;-86
2023/09/17 02:40:52;;;;;;;1.03;0.60;;;19.30;99.90;;;;;;4974517;28;20553;-83
2023/09/17 02:43:17;;;;;;;0.50;0.40;;;19.20;99.90;;;;;;4977566;28;20460;-77
2023/09/17 02:45:43;;;;;;;0.40;0.30;;;19.20;99.90;;;;;;4975476;28;20286;-85
2023/09/17 02:48:11;;;;;;;0.40;0.20;;;19.10;99.90;;;;;;4973207;28;20253;-82
2023/09/17 02:50:39;;;;;;;0.40;0.30;;;19.60;99.90;;;;;;4972106;28;20447;-80
2023/09/17 02:53:05;;;;;;;0.40;0.30;;;19.20;99.90;;;;;;4967570;28;20619;-82
2023/09/17 02:55:34;;;;;;;0.40;0.30;;;19.10;99.90;;;;;;4972852;28;20447;-77
2023/09/17 02:58:02;;;;;;;0.40;0.20;;;19.10;99.90;;;;;;4973464;28;20540;-81
2023/09/17 03:00:31;;;;;;;0.40;0.20;;;18.90;99.90;;;;;;4967787;28;20472;-84
2023/09/17 03:02:57;;;;;;;0.40;0.30;;;18.80;99.90;;;;;;4969768;28;20755;-80
2023/09/17 03:05:23;;;;;;;0.40;0.30;;;18.70;99.90;;;;;;4984624;28;20450;-80
2023/09/17 03:07:48;;;;;;;0.40;0.20;;;18.70;99.90;;;;;;4985441;28;21104;-81
2023/09/17 03:10:14;;;;;;;0.40;0.30;;;18.70;99.90;;;;;;4968345;28;20311;-80
2023/09/17 03:12:39;;;;;;;0.50;0.40;;;18.50;99.90;;;;;;4966319;28;20222;-82
2023/09/17 03:15:08;;;;;;;0.40;0.20;;;18.30;99.90;;;;;;4972951;28;20701;-83
2023/09/17 03:17:37;;;;;;;1.47;0.60;;;18.10;99.90;;;;;;4967247;28;20246;-81
2023/09/17 03:20:13;;;;;;;0.50;0.30;;;18.00;99.90;;;;;;4990144;28;20458;-84
2023/09/17 03:22:39;;;;;;;0.40;0.30;;;17.90;99.90;;;;;;4973238;28;20471;-81
2023/09/17 03:25:06;;;;;;;0.40;0.30;;;18.20;99.90;;;;;;4975012;28;21109;-84
2023/09/17 03:27:33;;;;;;;0.40;0.20;;;17.70;99.90;;;;;;4972890;28;20546;-85
2023/09/17 03:29:59;;;;;;;0.40;0.20;;;17.70;99.90;;;;;;4971459;28;20443;-84
2023/09/17 03:32:25;;;;;;;0.40;0.30;;;17.70;99.90;;;;;;4966594;28;20470;-87
2023/09/17 03:34:50;;;;;;;2.70;0.67;;;17.80;99.90;;;;;;4969419;28;20442;-82
2023/09/17 03:37:16;;;;;;;0.40;0.30;;;18.00;99.90;;;;;;4971046;28;20203;-82
2023/09/17 03:39:43;;;;;;;0.40;0.20;;;18.20;99.90;;;;;;4971783;28;20254;-86
2023/09/17 03:42:09;;;;;;;0.40;0.30;;;18.00;99.90;;;;;;4969132;28;20210;-81
2023/09/17 03:44:34;;;;;;;0.40;0.30;;;18.00;99.90;;;;;;4968770;28;20439;-82
2023/09/17 03:47:00;;;;;;;0.80;0.50;;;17.90;99.90;;;;;;4967825;28;20187;-86
2023/09/17 03:49:26;;;;;;;0.40;0.33;;;18.00;99.90;;;;;;4970757;28;20207;-82
2023/09/17 03:51:52;;;;;;;0.40;0.20;;;18.10;99.90;;;;;;4992411;28;20711;-79
2023/09/17 03:54:18;;;;;;;0.40;0.20;;;18.20;99.90;;;;;;4997601;28;20187;-81
2023/09/17 03:56:44;;;;;;;0.40;0.20;;;18.20;99.90;;;;;;4975647;28;20481;-85
2023/09/17 03:59:09;;;;;;;0.40;0.20;;;18.10;99.90;;;;;;4973844;28;20192;-84
2023/09/17 04:01:35;;;;;;;0.40;0.20;;;17.90;99.90;;;;;;4994423;28;20191;-78
2023/09/17 04:04:01;;;;;;;0.40;0.30;;;;;;;;;;4986723;28;21268;-85
2023/09/17 04:06:29;;;;;;;0.40;0.20;;;17.80;99.90;;;;;;4986920;28;21575;-83
2023/09/17 04:08:55;;;;;;;0.40;0.30;;;17.80;99.90;;;;;;4972085;28;20808;-83
2023/09/17 04:11:20;;;;;;;0.40;0.30;;;18.30;99.90;;;;;;4977673;28;20436;-85
2023/09/17 04:13:46;;;;;;;0.40;0.20;;;17.60;99.90;;;;;;4976307;28;20446;-85
2023/09/17 04:16:12;;;;;;;0.60;0.60;;;17.60;99.90;;;;;;4991669;28;20235;-82
2023/09/17 04:18:38;;;;;;;0.40;0.30;;;17.60;99.90;;;;;;4990575;28;20214;-85
2023/09/17 04:21:03;;;;;;;0.40;0.20;;;17.60;99.90;;;;;;4975966;28;20953;-79
2023/09/17 04:23:29;;;;;;;0.40;0.40;;;17.60;99.90;;;;;;4971957;28;20321;-82
2023/09/17 04:25:55;;;;;;;0.40;0.20;;;17.50;99.90;;;;;;4973775;28;20203;-84
2023/09/17 04:28:20;;;;;;;0.40;0.30;;;17.40;99.90;;;;;;4988062;28;20450;-85
2023/09/17 04:30:46;;;;;;;0.40;0.23;;;17.30;99.90;;;;;;4971320;28;20207;-80
2023/09/17 04:33:11;;;;;;;0.40;0.30;;;17.20;99.90;;;;;;4976235;28;20211;-82
2023/09/17 04:35:37;;;;;;;0.40;0.20;;;17.50;99.90;;;;;;4966567;28;20842;-81
2023/09/17 04:38:04;;;;;;;0.40;0.20;;;17.10;99.90;;;;;;4989083;28;20226;-82
2023/09/17 04:40:29;;;;;;;0.40;0.20;;;17.10;99.90;;;;;;4972317;28;20266;-81
2023/09/17 04:42:55;;;;;;;0.40;0.30;;;17.10;99.90;;;;;;4975055;28;20467;-85
2023/09/17 04:45:50;;;;;;;0.40;0.20;;;17.10;99.90;;;;;;4973773;28;20214;-83
2023/09/17 04:48:18;;;;;;;0.40;0.20;;;17.10;99.90;;;;;;4978162;28;20226;-80
2023/09/17 04:50:44;;;;;;;0.40;0.30;;;17.00;99.90;;;;;;4967400;28;20470;-84
2023/09/17 04:53:10;;;;;;;0.40;0.20;;;16.90;99.90;;;;;;4976543;28;20463;-87
2023/09/17 04:55:36;;;;;;;0.40;0.23;;;16.80;99.90;;;;;;4974223;28;20283;-82
2023/09/17 04:58:02;;;;;;;0.40;0.20;;;16.70;99.90;;;;;;4968415;28;20470;-85
2023/09/17 05:00:27;;;;;;;0.40;0.20;;;16.80;99.90;;;;;;4975853;28;20446;-85
2023/09/17 05:02:54;;;;;;;0.40;0.20;;;16.80;99.90;;;;;;4971070;28;20967;-86
2023/09/17 05:05:20;;;;;;;0.40;0.27;;;16.70;99.90;;;;;;4978887;28;20930;-81
2023/09/17 05:07:48;;;;;;;0.90;0.70;;;17.00;99.90;;;;;;4990060;28;20446;-79
2023/09/17 05:10:15;;;;;;;0.40;0.30;;;16.90;99.90;;;;;;4990015;28;22242;-87
2023/09/17 05:12:41;;;;;;;0.40;0.20;;;17.00;99.90;;;;;;4973148;28;20458;-86
2023/09/17 05:15:07;;;;;;;0.40;0.20;;;17.10;99.90;;;;;;4973933;28;20443;-84
2023/09/17 05:17:33;;;;;;;0.40;0.20;;;17.20;99.90;;;;;;4965620;28;20493;-80
2023/09/17 05:19:58;;;;;;;0.40;0.30;;;17.30;99.90;;;;;;4986228;28;21125;-85
2023/09/17 05:22:24;;;;;;;0.40;0.20;;;17.40;99.90;;;;;;4983549;28;20234;-81
2023/09/17 05:24:50;;;;;;;0.40;0.27;;;17.50;99.90;;;;;;4973929;28;20279;-82
2023/09/17 05:27:15;;;;;;;0.40;0.20;;;17.60;99.90;;;;;;4972529;28;20195;-81
2023/09/17 05:29:41;;;;;;;0.40;0.20;;;17.80;99.90;;;;;;4966979;28;20204;-81
2023/09/17 05:32:06;;;;;;;0.40;0.30;;;18.50;99.90;;;;;;4969414;28;20215;-87
2023/09/17 05:34:32;;;;;;;0.40;0.30;;;19.00;99.90;;;;;;4974460;28;20451;-83
2023/09/17 05:36:57;;;;;;;0.40;0.20;;;19.30;99.90;;;;;;4965642;28;20491;-82
2023/09/17 05:39:23;;;;;;;0.40;0.20;;;19.90;99.90;;;;;;4959833;28;20210;-84
2023/09/17 05:41:49;;;;;;;0.40;0.30;;;20.40;99.90;;;;;;4965361;28;20208;-79
2023/09/17 05:44:14;;;;;;;0.40;0.30;;;21.60;99.90;;;;;;4963489;28;20948;-88
2023/09/17 05:46:40;;;;;;;1.07;0.40;;;23.00;99.90;;;;;;4982046;28;20451;-82
2023/09/17 05:49:05;;;;;;;0.40;0.30;;;23.20;99.90;;;;;;4985943;28;20258;-87
2023/09/17 05:51:31;;;;;;;0.40;0.30;;;23.20;99.90;;;;;;4967591;28;20203;-87
2023/09/17 05:53:57;;;;;;;0.40;0.20;;;23.50;99.90;;;;;;4963492;28;20191;-80
2023/09/17 05:56:22;;;;;;;0.40;0.20;;;24.40;99.90;;;;;;4985874;28;20222;-83
2023/09/17 05:58:48;;;;;;;0.40;0.30;;;25.50;99.90;;;;;;4965202;28;20189;-86
2023/09/17 06:01:14;;;;;;;0.93;0.73;;;26.60;99.90;;;;;;4969717;28;20314;-82
2023/09/17 06:03:39;;;;;;;0.40;0.20;;;27.70;99.90;;;;;;4974937;28;20186;-82
2023/09/17 06:06:05;;;;;;;0.40;0.30;;;29.00;99.90;;;;;;4974691;28;20446;-85
2023/09/17 06:08:31;;;;;;;0.40;0.30;;;30.10;99.90;;;;;;4968987;28;21223;-79
2023/09/17 06:10:57;;;;;;;0.40;0.30;;;;;;;;;;4985505;28;20197;-83
2023/09/17 06:13:23;;;;;;;0.40;0.30;;;29.80;99.90;;;;;;4987370;28;20489;-87
2023/09/17 06:15:49;;;;;;;0.50;0.40;;;29.60;99.90;;;;;;4972093;28;20993;-84
2023/09/17 06:18:16;;;;;;;0.40;0.30;;;30.60;99.90;;;;;;4961084;28;20446;-81
2023/09/17 06:20:42;;;;;;;0.47;0.30;;;31.30;99.90;;;;;;4964375;28;20459;-84
2023/09/17 06:23:08;;;;;;;0.50;0.30;;;31.40;99.90;;;;;;4961751;28;20501;-85
2023/09/17 06:25:33;;;;;;;0.50;0.40;;;31.60;99.90;;;;;;4962580;28;20184;-78
2023/09/17 06:27:59;;;;;;;1.17;0.53;;;31.20;99.90;;;;;;4989324;28;20194;-82
2023/09/17 06:30:25;;;;;;;0.40;0.30;;;30.90;99.90;;;;;;4962358;28;20207;-82
2023/09/17 06:32:52;;;;;;;0.43;0.30;;;30.70;99.90;;;;;;4963152;28;20237;-83
2023/09/17 06:35:18;;;;;;;0.40;0.30;;;31.20;99.90;;;;;;4959921;28;20450;-84
2023/09/17 06:37:44;;;;;;;0.40;0.30;;;;;;;;;;4971247;28;20550;-80
2023/09/17 06:40:10;;;;;;;0.40;0.30;;;29.20;99.90;;;;;;4974363;28;20250;-80
2023/09/17 06:42:37;;;;;;;0.50;0.30;;;30.00;99.90;;;;;;4973234;28;20562;-82
2023/09/17 06:45:03;;;;;;;0.40;0.30;;;29.70;99.90;;;;;;4975808;28;20890;-82
2023/09/17 06:47:28;;;;;;;0.40;0.30;;;30.20;99.90;;;;;;4983486;28;20462;-84
2023/09/17 06:49:54;;;;;;;0.50;0.30;;;31.40;99.90;;;;;;4972343;28;20205;-81
2023/09/17 06:52:19;;;;;;;0.43;0.30;;;31.70;99.20;;;;;;4976708;28;20220;-80
2023/09/17 06:54:45;;;;;;;0.50;0.40;;;32.20;97.80;;;;;;4971922;28;20755;-82
2023/09/17 06:57:11;;;;;;;0.40;0.30;;;31.40;97.20;;;;;;4972642;28;20928;-80
2023/09/17 06:59:36;;;;;;;0.50;0.30;;;30.50;98.60;;;;;;4972786;28;20257;-81
2023/09/17 07:02:02;;;;;;;0.40;0.30;;;29.00;99.90;;;;;;4992148;28;20211;-81
2023/09/17 07:04:27;;;;;;;0.50;0.30;;;28.10;99.90;;;;;;4978380;28;20183;-78
2023/09/17 07:06:54;;;;;;;0.40;0.30;;;27.60;99.90;;;;;;4974836;28;20189;-79
2023/09/17 07:09:20;;;;;;;0.50;0.30;;;28.70;99.90;;;;;;4973408;28;20191;-79
2023/09/17 07:11:45;;;;;;;0.50;0.40;;;28.10;99.90;;;;;;4976587;28;20486;-80
2023/09/17 07:14:11;;;;;;;0.50;0.37;;;27.50;99.90;;;;;;4985366;28;20205;-81
2023/09/17 07:16:37;;;;;;;0.40;0.30;;;27.00;99.90;;;;;;4952698;28;20228;-84
2023/09/17 07:19:04;;;;;;;0.40;0.30;;;27.30;99.90;;;;;;4970332;28;20286;-78
2023/09/17 07:21:30;;;;;;;0.50;0.30;;;27.80;99.90;;;;;;4949758;28;20201;-83
2023/09/17 07:23:56;;;;;;;0.40;0.30;;;28.70;99.90;;;;;;4950132;28;20746;-79
2023/09/17 07:26:21;;;;;;;0.83;0.83;;;29.50;99.90;;;;;;4958021;28;21174;-82
2023/09/17 07:28:47;;;;;;;0.40;0.30;;;30.10;99.90;;;;;;4958991;28;20199;-82
2023/09/17 07:31:13;;;;;;;0.40;0.30;;;30.70;99.90;;;;;;4961734;28;20240;-82
2023/09/17 07:33:41;;;;;;;0.50;0.30;;;30.80;99.90;;;;;;4953883;28;20755;-81
2023/09/17 07:36:06;;;;;;;0.50;0.30;;;31.20;99.90;;;;;;4954804;28;20473;-84
2023/09/17 07:38:32;;;;;;;0.50;0.30;;;31.50;99.90;;;;;;4955084;28;20452;-84
2023/09/17 07:40:57;;;;;;;0.50;0.40;;;32.00;99.30;;;;;;4959414;28;20194;-84
2023/09/17 07:43:23;;;;;;;0.50;0.33;;;32.00;98.00;;;;;;4979798;28;20222;-79
2023/09/17 07:45:48;;;;;;;2.00;0.90;;;31.80;98.40;;;;;;4968183;28;20286;-80
2023/09/17 07:48:14;;;;;;;0.63;0.63;;;31.60;98.60;;;;;;4971223;28;20191;-86
2023/09/17 07:50:40;;;;;;;0.50;0.30;;;31.70;99.20;;;;;;4970792;28;20243;-82
2023/09/17 07:53:07;;;;;;;0.40;0.30;;;32.20;98.60;;;;;;4966503;28;20214;-83
2023/09/17 07:55:33;;;;;;;0.50;0.30;;;32.40;97.90;;;;;;4978839;28;20448;-84
2023/09/17 07:57:58;;;;;;;0.50;0.30;;;32.30;96.50;;;;;;4975760;28;20529;-83
2023/09/17 08:00:25;;;;;;;0.50;0.50;;;;;;;;;;4980944;28;20452;-87
2023/09/17 08:02:51;;;;;;;0.60;0.60;;;;;;;;;;4992052;28;20692;-81
2023/09/17 08:05:17;;;;;;;0.70;0.70;;;36.90;83.00;;;;;;4972818;28;20484;-83
2023/09/17 08:07:44;;;;;;;0.93;0.93;;;36.80;83.60;;;;;;4976506;28;21018;-84
2023/09/17 08:10:10;;;;;;;1.40;1.40;;;37.50;86.30;;;;;;4977811;28;20451;-84
2023/09/17 08:12:36;;;;;;;1.60;1.60;;;;;;;;;;4979615;28;20466;-86
2023/09/17 08:15:03;;;;;;;2.40;2.30;;;39.20;72.80;;;;;;4973768;28;20435;-85
2023/09/17 08:17:28;;;;;;;2.40;2.30;;;39.10;68.90;;;;;;4973015;28;20581;-81
2023/09/17 08:19:56;;;;;;;2.67;2.57;;;37.40;71.20;;;;;;4983405;28;20473;-84
2023/09/17 08:22:22;;;;;;;2.63;2.53;;;;;;;;;;4979633;28;20207;-81
2023/09/17 08:24:48;;;;;;;3.13;3.03;;;37.90;71.80;;;;;;4979640;28;20462;-84
2023/09/17 08:27:16;;;;;;;3.23;3.13;;;38.30;70.50;;;;;;4970049;28;20434;-84
2023/09/17 08:29:43;;;;;;;3.37;3.27;;;;;;;;;;4997306;28;20469;-87
2023/09/17 08:32:11;;;;;;;3.00;2.90;;;;;;;;;;4978788;28;20446;-81
2023/09/17 08:34:37;;;;;;;3.37;3.27;;;38.70;67.50;;;;;;4971248;28;20446;-83
2023/09/17 08:37:04;;;;;;;4.50;4.40;;;39.70;67.00;;;;;;4973484;28;20466;-85
2023/09/17 08:39:31;;;;;;;5.00;4.87;;;40.60;63.20;;;;;;4962827;28;20458;-82
2023/09/17 08:41:59;;;;;;;6.20;6.00;;;41.40;60.30;;;;;;4980947;28;20845;-82
2023/09/17 08:44:26;;;;;;;6.53;6.33;;;40.10;55.70;;;;;;4991559;28;20481;-86
2023/09/17 08:46:54;;;;;;;6.57;6.37;;;39.50;56.10;;;;;;4966381;28;20485;-84
2023/09/17 08:49:20;;;;;;;7.80;7.50;;;39.40;54.30;;;;;;4983036;28;20451;-87
2023/09/17 08:51:47;;;;;;;6.93;6.73;;;38.70;54.00;;;;;;4982800;28;21213;-83
2023/09/17 08:54:24;;;;;;;6.23;6.03;;;37.80;55.90;;;;;;4966811;28;20191;-84
2023/09/17 08:56:52;;;;;;;6.00;5.80;;;36.80;58.10;;;;;;4976769;28;20467;-84
2023/09/17 08:59:29;;;;;;;5.60;5.40;;;35.60;58.80;;;;;;4985317;28;20540;-84
2023/09/17 09:02:02;;;;;;;4.80;4.70;;;34.50;59.30;;;;;;4962054;28;20479;-85
2023/09/17 09:04:29;;;;;;;3.93;3.83;;;33.20;62.70;;;;;;4969947;28;20450;-87
2023/09/17 09:06:55;;;;;;;3.63;3.53;;;34.20;66.40;;;;;;4969570;28;20498;-82
2023/09/17 09:09:23;;;;;;;4.47;4.37;;;35.50;63.40;;;;;;4970374;28;20446;-84
2023/09/17 09:11:49;;;;;;;4.90;4.80;;;36.30;59.80;;;;;;4987602;28;20473;-85
2023/09/17 09:14:15;;;;;;;4.90;4.80;;;36.40;59.20;;;;;;4973288;28;20439;-81
2023/09/17 09:16:44;;;;;;;5.20;5.00;;;;;;;;;;4967146;28;20493;-85
2023/09/17 09:19:11;;;;;;;5.10;4.93;;;36.90;59.30;;;;;;4990291;28;20431;-82
2023/09/17 09:21:36;;;;;;;5.80;5.60;;;38.00;59.20;;;;;;5002652;28;20455;-80
2023/09/17 09:24:02;;;;;;;6.60;6.40;;;38.20;56.50;;;;;;5004931;28;20442;-81
2023/09/17 09:26:36;;;;;;;5.80;5.60;;;37.30;55.60;;;;;;4985107;28;20194;-85
2023/09/17 09:29:04;;;;;;;6.57;6.27;;;36.70;57.50;;;;;;4991924;28;20454;-84
2023/09/17 09:31:33;;;;;;;5.83;5.63;;;36.40;59.80;;;;;;4965724;28;20445;-83
2023/09/17 09:34:02;;;;;;;6.03;5.83;;;36.40;59.20;;;;;;4959565;28;20481;-81
2023/09/17 09:36:31;;;;;;;5.63;5.43;;;36.30;59.80;;;;;;4958439;28;20853;-89
2023/09/17 09:38:57;;;;;;;5.83;5.63;;;36.80;58.90;;;;;;4981355;28;20459;-84
2023/09/17 09:41:25;;;;;;;5.80;5.60;;;36.80;59.00;;;;;;4963401;28;20489;-86
2023/09/17 09:43:52;;;;;;;6.73;6.53;;;37.10;58.90;;;;;;4963388;28;20442;-81
2023/09/17 09:46:18;;;;;;;6.33;6.13;;;37.50;57.30;;;;;;4973035;28;20447;-83
2023/09/17 09:48:45;;;;;;;6.37;6.17;;;37.30;58.40;;;;;;4968823;28;20826;-85
2023/09/17 09:51:10;;;;;;;6.10;5.90;;;36.50;59.10;;;;;;4983459;28;20188;-83
2023/09/17 09:53:36;;;;;;;5.80;5.60;;;36.00;59.80;;;;;;4968800;28;20515;-86
2023/09/17 09:56:04;;;;;;;5.90;5.70;;;35.50;62.50;;;;;;4985499;28;20205;-82
2023/09/17 09:58:29;;;;;;;6.10;5.90;;;36.30;59.50;;;;;;4980750;28;20189;-85
2023/09/17 10:00:57;;;;;;;6.27;6.07;;;36.50;59.20;;;;;;4971290;28;20519;-85
2023/09/17 10:03:24;;;;;;;5.87;5.67;;;35.50;57.60;;;;;;4986758;28;20207;-85
2023/09/17 10:05:50;;;;;;;5.37;5.17;;;35.00;59.10;;;;;;4982469;28;21152;-85
2023/09/17 10:08:17;;;;;;;4.90;4.73;;;33.70;60.30;;;;;;4963964;28;20442;-84
2023/09/17 10:10:43;;;;;;;4.40;4.30;;;33.10;61.80;;;;;;4977369;28;20458;-81
2023/09/17 10:13:10;;;;;;;4.50;4.40;;;33.20;64.80;;;;;;4973661;28;20474;-87
2023/09/17 10:15:37;;;;;;;4.13;4.03;;;33.20;62.10;;;;;;4969765;28;20472;-87
2023/09/17 10:18:04;;;;;;;4.20;4.10;;;33.30;64.50;;;;;;4969323;28;20532;-86
2023/09/17 10:20:30;;;;;;;3.23;3.13;;;32.40;66.00;;;;;;4975884;28;20455;-79
2023/09/17 10:22:57;;;;;;;3.00;2.90;;;31.80;68.70;;;;;;4987287;28;20535;-80
2023/09/17 10:25:25;;;;;;;2.77;2.67;;;31.80;70.20;;;;;;4968130;28;20526;-83
2023/09/17 10:27:52;;;;;;;3.10;3.00;;;32.10;66.90;;;;;;4967081;28;20568;-82
2023/09/17 10:30:18;;;;;;;3.20;3.10;;;32.00;69.30;;;;;;4960397;28;20447;-83
2023/09/17 10:32:46;;;;;;;2.30;2.20;;;32.00;67.60;;;;;;4978423;28;20545;-80
2023/09/17 10:35:16;;;;;;;2.50;2.40;;;31.80;69.50;;;;;;4965325;28;20585;-85
2023/09/17 10:37:43;;;;;;;2.57;2.47;;;31.70;70.20;;;;;;4958496;28;20481;-85
2023/09/17 10:40:11;;;;;;;2.30;2.20;;;31.40;70.50;;;;;;4965278;28;20452;-83
2023/09/17 10:42:38;;;;;;;2.13;2.03;;;31.50;71.40;;;;;;4962951;28;20472;-84
2023/09/17 10:45:07;;;;;;;1.87;1.77;;;31.60;71.30;;;;;;4968561;28;20453;-82
2023/09/17 10:47:36;;;;;;;1.73;1.73;;;31.60;72.70;;;;;;4966098;28;20455;-80
2023/09/17 10:50:03;;;;;;;2.23;2.13;;;31.90;73.20;;;;;;4977880;28;20461;-81
2023/09/17 10:52:31;;;;;;;2.00;1.90;;;31.60;70.10;;;;;;4979497;28;20474;-79
2023/09/17 10:54:57;;;;;;;1.50;1.50;;;31.20;70.50;;;;;;4967755;28;20449;-83
2023/09/17 10:57:32;;;;;;;1.77;1.70;;;31.20;70.70;;;;;;4966392;28;21078;-84
2023/09/17 11:00:00;;;;;;;1.57;1.57;;;31.20;71.50;;;;;;4964631;28;20518;-84
2023/09/17 11:02:28;;;;;;;1.50;1.50;;;31.40;70.60;;;;;;4983421;28;20957;-78
2023/09/17 11:04:55;;;;;;;1.90;1.80;;;31.80;71.90;;;;;;4957362;28;20451;-79
2023/09/17 11:07:21;;;;;;;1.27;1.27;;;31.80;74.30;;;;;;4969958;28;20446;-86
2023/09/17 11:09:47;;;;;;;1.40;1.40;;;32.00;74.20;;;;;;4966229;28;20450;-79
2023/09/17 11:12:14;;;;;;;1.53;1.53;;;31.90;74.60;;;;;;4968722;28;21175;-85
2023/09/17 11:14:40;;;;;;;1.60;1.50;;;31.70;74.40;;;;;;4967864;28;20461;-81
2023/09/17 11:17:09;;;;;;;1.50;1.50;;;31.70;74.20;;;;;;4966797;28;20505;-83
2023/09/17 11:19:34;;;;;;;2.00;1.90;;;31.90;74.40;;;;;;4963839;28;20457;-77
2023/09/17 11:22:03;;;;;;;1.30;1.30;;;31.60;74.00;;;;;;4975173;28;20603;-77
2023/09/17 11:24:31;;;;;;;1.63;1.63;;;31.20;73.80;;;;;;4961009;28;21676;-84
2023/09/17 11:26:58;;;;;;;1.50;1.50;;;31.30;75.10;;;;;;4963282;28;20950;-82
2023/09/17 11:29:45;;;;;;;1.50;1.50;;;31.60;73.60;;;;;;4964978;28;20453;-81
2023/09/17 11:32:13;;;;;;;1.40;1.40;;;31.80;74.20;;;;;;4985625;28;20474;-81
2023/09/17 11:34:42;;;;;;;1.50;1.50;;;31.80;74.20;;;;;;4962714;28;20552;-79
2023/09/17 11:37:08;;;;;;;1.20;1.20;;;31.90;75.60;;;;;;4974401;28;20499;-80
2023/09/17 11:39:48;;;;;;;1.30;1.30;;;31.70;74.10;;;;;;4965070;28;20455;-80
2023/09/17 11:42:14;;;;;;;1.50;1.50;;;31.60;74.60;;;;;;4980796;28;20452;-81
2023/09/17 11:44:44;;;;;;;1.47;1.47;;;31.40;76.00;;;;;;4963260;28;20463;-80
2023/09/17 11:47:12;;;;;;;1.30;1.30;;;31.30;74.20;;;;;;4969460;28;20584;-81
2023/09/17 11:49:39;;;;;;;1.30;1.30;;;31.20;75.00;;;;;;4971967;28;20441;-86
2023/09/17 11:52:10;;;;;;;1.13;1.13;;;31.20;75.90;;;;;;4958648;28;20511;-82
2023/09/17 11:54:40;;;;;;;1.10;1.10;;;31.20;76.30;;;;;;4980809;28;20523;-82
2023/09/17 11:57:07;;;;;;;1.20;1.20;;;31.50;74.00;;;;;;4965024;28;20572;-85
2023/09/17 11:59:38;;;;;;;1.30;1.30;;;31.50;74.90;;;;;;4962221;28;20507;-84
2023/09/17 12:02:08;;;;;;;1.37;1.37;;;31.60;74.50;;;;;;4958259;28;20508;-80
2023/09/17 12:04:37;;;;;;;1.30;1.30;;;31.70;71.70;;;;;;4945578;28;20512;-78
2023/09/17 12:07:08;;;;;;;1.00;1.00;;;31.50;72.40;;;;;;4954790;28;20982;-81
2023/09/17 12:12:13;;;;;;;1.10;1.10;;;31.10;73.90;;;;;;4961268;28;20472;-82
2023/09/17 12:14:39;;;;;;;0.97;0.97;;;30.90;74.30;;;;;;4975637;28;20567;-77
2023/09/17 12:17:05;;;;;;;1.30;1.20;;;30.80;74.60;;;;;;4964858;28;20208;-82
2023/09/17 12:19:31;;;;;;;1.10;1.10;;;30.70;75.00;;;;;;4975905;28;20456;-82
2023/09/17 12:22:00;;;;;;;1.47;1.03;;;30.80;76.50;;;;;;4967321;28;20652;-81
2023/09/17 12:24:44;;;;;;;0.83;0.83;;;30.70;76.00;;;;;;4961894;28;20675;-80
2023/09/17 12:27:34;;;;;;;0.80;0.80;;;30.70;74.20;;;;;;4962266;28;20578;-83
2023/09/17 12:30:05;;;;;;;1.07;1.07;;;30.60;75.10;;;;;;4957429;28;20478;-83
2023/09/17 12:32:33;;;;;;;0.70;0.70;;;30.80;76.60;;;;;;4957671;28;20956;-81
2023/09/17 12:34:58;;;;;;;0.70;0.70;;;31.00;75.50;;;;;;4980533;28;20598;-81
2023/09/17 12:37:28;;;;;;;0.90;0.90;;;31.20;73.40;;;;;;4985073;28;20504;-84
2023/09/17 12:39:56;;;;;;;0.87;0.87;;;31.20;73.50;;;;;;4966341;28;20207;-79
2023/09/17 12:42:22;;;;;;;1.00;1.00;;;31.30;72.60;;;;;;4981076;28;20474;-83
2023/09/17 12:44:48;;;;;;;1.10;1.10;;;31.10;71.20;;;;;;4994752;28;20460;-79
2023/09/17 12:47:15;;;;;;;1.10;1.10;;;31.10;71.30;;;;;;4963511;28;20276;-83
2023/09/17 12:49:41;;;;;;;1.07;1.07;;;31.10;73.00;;;;;;4977233;28;20559;-86
2023/09/17 12:52:07;;;;;;;1.10;1.10;;;31.00;70.20;;;;;;4959909;28;20477;-82